sensor_id;sensor_type;location;lat;lon;timestamp;temperature;humidity
72762;SHT30;60886;55.034;73.150;2023-04-10T00:00:35;2.01;70.07
72762;SHT30;60886;55.034;73.150;2023-04-10T00:03:38;2.02;69.91
72762;SHT30;60886;55.034;73.150;2023-04-10T00:06:43;2.08;69.78
72762;SHT30;60886;55.034;73.150;2023-04-10T00:09:45;1.99;69.95
72762;SHT30;60886;55.034;73.150;2023-04-10T00:12:46;1.96;69.99
72762;SHT30;60886;55.034;73.150;2023-04-10T00:15:48;1.92;70.01
72762;SHT30;60886;55.034;73.150;2023-04-10T00:18:55;1.96;69.77
72762;SHT30;60886;55.034;73.150;2023-04-10T00:21:57;1.95;69.70
72762;SHT30;60886;55.034;73.150;2023-04-10T00:25:07;1.96;69.60
72762;SHT30;60886;55.034;73.150;2023-04-10T00:28:08;2.05;69.39
72762;SHT30;60886;55.034;73.150;2023-04-10T00:31:10;2.08;69.21
72762;SHT30;60886;55.034;73.150;2023-04-10T00:34:12;2.09;69.24
72762;SHT30;60886;55.034;73.150;2023-04-10T00:37:19;2.06;69.24
72762;SHT30;60886;55.034;73.150;2023-04-10T00:40:20;2.09;69.13
72762;SHT30;60886;55.034;73.150;2023-04-10T00:43:22;2.13;68.98
72762;SHT30;60886;55.034;73.150;2023-04-10T00:46:26;2.06;68.93
72762;SHT30;60886;55.034;73.150;2023-04-10T00:49:39;2.10;68.88
72762;SHT30;60886;55.034;73.150;2023-04-10T00:52:43;2.19;68.52
72762;SHT30;60886;55.034;73.150;2023-04-10T00:55:45;2.20;68.37
72762;SHT30;60886;55.034;73.150;2023-04-10T00:58:51;2.28;68.13
72762;SHT30;60886;55.034;73.150;2023-04-10T01:01:55;2.32;67.76
72762;SHT30;60886;55.034;73.150;2023-04-10T01:04:57;2.43;67.53
72762;SHT30;60886;55.034;73.150;2023-04-10T01:08:16;2.47;67.14
72762;SHT30;60886;55.034;73.150;2023-04-10T01:14:52;2.54;66.92
72762;SHT30;60886;55.034;73.150;2023-04-10T01:18:23;2.61;66.39
72762;SHT30;60886;55.034;73.150;2023-04-10T01:21:27;2.70;66.00
72762;SHT30;60886;55.034;73.150;2023-04-10T01:31:42;2.77;65.15
72762;SHT30;60886;55.034;73.150;2023-04-10T01:34:48;2.80;65.22
72762;SHT30;60886;55.034;73.150;2023-04-10T01:37:52;2.76;64.98
72762;SHT30;60886;55.034;73.150;2023-04-10T01:40:54;2.76;64.55
72762;SHT30;60886;55.034;73.150;2023-04-10T01:44:02;2.83;64.69
72762;SHT30;60886;55.034;73.150;2023-04-10T01:47:06;2.79;64.08
72762;SHT30;60886;55.034;73.150;2023-04-10T01:50:15;2.88;64.00
72762;SHT30;60886;55.034;73.150;2023-04-10T01:53:20;2.98;63.59
72762;SHT30;60886;55.034;73.150;2023-04-10T01:56:24;2.91;63.61
72762;SHT30;60886;55.034;73.150;2023-04-10T01:59:26;3.00;63.47
72762;SHT30;60886;55.034;73.150;2023-04-10T02:02:31;3.07;63.36
72762;SHT30;60886;55.034;73.150;2023-04-10T02:08:56;3.31;62.47
72762;SHT30;60886;55.034;73.150;2023-04-10T02:12:15;3.55;61.76
72762;SHT30;60886;55.034;73.150;2023-04-10T02:15:20;3.69;61.54
72762;SHT30;60886;55.034;73.150;2023-04-10T02:18:23;3.85;61.49
72762;SHT30;60886;55.034;73.150;2023-04-10T02:21:26;4.03;60.63
72762;SHT30;60886;55.034;73.150;2023-04-10T02:24:27;4.31;60.25
72762;SHT30;60886;55.034;73.150;2023-04-10T02:27:34;4.33;59.33
72762;SHT30;60886;55.034;73.150;2023-04-10T02:30:43;4.47;59.48
72762;SHT30;60886;55.034;73.150;2023-04-10T02:33:48;4.62;59.57
72762;SHT30;60886;55.034;73.150;2023-04-10T02:36:51;4.79;58.83
72762;SHT30;60886;55.034;73.150;2023-04-10T02:39:54;4.85;58.77
72762;SHT30;60886;55.034;73.150;2023-04-10T02:42:58;5.05;58.40
72762;SHT30;60886;55.034;73.150;2023-04-10T02:45:59;5.20;58.29
72762;SHT30;60886;55.034;73.150;2023-04-10T02:49:06;5.42;57.14
72762;SHT30;60886;55.034;73.150;2023-04-10T02:52:07;5.50;58.66
72762;SHT30;60886;55.034;73.150;2023-04-10T02:55:09;5.64;57.01
72762;SHT30;60886;55.034;73.150;2023-04-10T02:58:13;5.86;56.58
72762;SHT30;60886;55.034;73.150;2023-04-10T03:01:15;5.81;56.38
72762;SHT30;60886;55.034;73.150;2023-04-10T03:04:18;5.87;57.30
72762;SHT30;60886;55.034;73.150;2023-04-10T03:07:20;6.12;56.66
72762;SHT30;60886;55.034;73.150;2023-04-10T03:10:23;6.35;55.41
72762;SHT30;60886;55.034;73.150;2023-04-10T03:13:24;6.46;55.57
72762;SHT30;60886;55.034;73.150;2023-04-10T03:16:26;6.73;55.27
72762;SHT30;60886;55.034;73.150;2023-04-10T03:19:27;6.86;54.63
72762;SHT30;60886;55.034;73.150;2023-04-10T03:22:29;7.04;53.80
72762;SHT30;60886;55.034;73.150;2023-04-10T03:25:33;7.18;53.79
72762;SHT30;60886;55.034;73.150;2023-04-10T03:28:36;7.18;53.31
72762;SHT30;60886;55.034;73.150;2023-04-10T03:31:40;7.17;53.34
72762;SHT30;60886;55.034;73.150;2023-04-10T03:34:42;7.26;54.16
72762;SHT30;60886;55.034;73.150;2023-04-10T03:37:49;7.23;53.69
72762;SHT30;60886;55.034;73.150;2023-04-10T03:41:01;7.32;54.27
72762;SHT30;60886;55.034;73.150;2023-04-10T03:44:05;7.35;53.19
72762;SHT30;60886;55.034;73.150;2023-04-10T03:47:06;7.27;52.78
72762;SHT30;60886;55.034;73.150;2023-04-10T03:50:08;7.35;52.96
72762;SHT30;60886;55.034;73.150;2023-04-10T03:53:21;7.65;53.34
72762;SHT30;60886;55.034;73.150;2023-04-10T03:56:22;7.99;53.80
72762;SHT30;60886;55.034;73.150;2023-04-10T03:59:24;7.62;52.52
72762;SHT30;60886;55.034;73.150;2023-04-10T04:02:39;7.71;53.98
72762;SHT30;60886;55.034;73.150;2023-04-10T04:05:41;7.55;53.17
72762;SHT30;60886;55.034;73.150;2023-04-10T04:09:17;7.52;53.41
72762;SHT30;60886;55.034;73.150;2023-04-10T04:12:54;7.62;52.88
72762;SHT30;60886;55.034;73.150;2023-04-10T04:16:09;7.89;52.75
72762;SHT30;60886;55.034;73.150;2023-04-10T04:19:25;7.86;52.73
72762;SHT30;60886;55.034;73.150;2023-04-10T04:22:48;8.05;51.74
72762;SHT30;60886;55.034;73.150;2023-04-10T04:26:12;7.75;53.14
72762;SHT30;60886;55.034;73.150;2023-04-10T04:29:22;7.72;52.57
72762;SHT30;60886;55.034;73.150;2023-04-10T04:32:47;7.67;53.02
72762;SHT30;60886;55.034;73.150;2023-04-10T04:36:09;7.96;53.61
72762;SHT30;60886;55.034;73.150;2023-04-10T04:39:13;8.36;52.67
72762;SHT30;60886;55.034;73.150;2023-04-10T04:42:27;8.47;52.16
72762;SHT30;60886;55.034;73.150;2023-04-10T04:45:43;8.42;51.80
72762;SHT30;60886;55.034;73.150;2023-04-10T04:49:01;8.80;51.41
72762;SHT30;60886;55.034;73.150;2023-04-10T04:52:20;8.91;51.64
72762;SHT30;60886;55.034;73.150;2023-04-10T04:55:53;8.94;50.88
72762;SHT30;60886;55.034;73.150;2023-04-10T04:59:13;9.14;50.63
72762;SHT30;60886;55.034;73.150;2023-04-10T05:02:53;9.36;51.05
72762;SHT30;60886;55.034;73.150;2023-04-10T05:06:15;8.94;52.13
72762;SHT30;60886;55.034;73.150;2023-04-10T05:09:32;9.01;50.82
72762;SHT30;60886;55.034;73.150;2023-04-10T05:13:10;9.11;51.65
72762;SHT30;60886;55.034;73.150;2023-04-10T05:16:20;9.28;51.08
72762;SHT30;60886;55.034;73.150;2023-04-10T05:19:42;9.56;49.55
72762;SHT30;60886;55.034;73.150;2023-04-10T05:23:08;9.51;50.29
72762;SHT30;60886;55.034;73.150;2023-04-10T05:26:34;9.66;49.82
72762;SHT30;60886;55.034;73.150;2023-04-10T05:29:53;9.81;48.73
72762;SHT30;60886;55.034;73.150;2023-04-10T05:33:13;9.69;49.72
72762;SHT30;60886;55.034;73.150;2023-04-10T05:36:34;9.78;48.86
72762;SHT30;60886;55.034;73.150;2023-04-10T05:40:07;9.72;51.16
72762;SHT30;60886;55.034;73.150;2023-04-10T05:43:32;9.90;49.83
72762;SHT30;60886;55.034;73.150;2023-04-10T05:46:46;9.78;49.83
72762;SHT30;60886;55.034;73.150;2023-04-10T05:49:47;9.75;49.95
72762;SHT30;60886;55.034;73.150;2023-04-10T05:53:00;9.61;50.74
72762;SHT30;60886;55.034;73.150;2023-04-10T05:56:27;9.52;51.03
72762;SHT30;60886;55.034;73.150;2023-04-10T06:00:08;9.58;52.16
72762;SHT30;60886;55.034;73.150;2023-04-10T06:03:15;9.75;51.48
72762;SHT30;60886;55.034;73.150;2023-04-10T06:06:26;9.75;51.43
72762;SHT30;60886;55.034;73.150;2023-04-10T06:09:31;9.78;51.84
72762;SHT30;60886;55.034;73.150;2023-04-10T06:12:34;9.92;51.45
72762;SHT30;60886;55.034;73.150;2023-04-10T06:15:37;10.00;50.79
72762;SHT30;60886;55.034;73.150;2023-04-10T06:18:39;9.94;50.32
72762;SHT30;60886;55.034;73.150;2023-04-10T06:21:40;9.69;51.30
72762;SHT30;60886;55.034;73.150;2023-04-10T06:24:41;9.83;51.44
72762;SHT30;60886;55.034;73.150;2023-04-10T06:27:43;9.79;51.48
72762;SHT30;60886;55.034;73.150;2023-04-10T06:30:55;9.93;51.11
72762;SHT30;60886;55.034;73.150;2023-04-10T06:34:07;10.07;51.56
72762;SHT30;60886;55.034;73.150;2023-04-10T06:37:27;10.20;50.36
72762;SHT30;60886;55.034;73.150;2023-04-10T06:40:31;10.10;50.00
72762;SHT30;60886;55.034;73.150;2023-04-10T06:43:35;10.10;49.73
72762;SHT30;60886;55.034;73.150;2023-04-10T06:46:37;10.14;51.57
72762;SHT30;60886;55.034;73.150;2023-04-10T06:49:39;10.27;50.97
72762;SHT30;60886;55.034;73.150;2023-04-10T06:52:47;10.41;50.76
72762;SHT30;60886;55.034;73.150;2023-04-10T06:55:53;10.53;49.25
72762;SHT30;60886;55.034;73.150;2023-04-10T06:58:55;10.57;49.38
72762;SHT30;60886;55.034;73.150;2023-04-10T07:01:57;10.61;50.52
72762;SHT30;60886;55.034;73.150;2023-04-10T07:05:07;10.71;49.93
72762;SHT30;60886;55.034;73.150;2023-04-10T07:08:11;10.75;48.58
72762;SHT30;60886;55.034;73.150;2023-04-10T07:11:12;10.75;48.47
72762;SHT30;60886;55.034;73.150;2023-04-10T07:14:14;10.85;47.60
72762;SHT30;60886;55.034;73.150;2023-04-10T07:17:15;11.01;48.33
72762;SHT30;60886;55.034;73.150;2023-04-10T07:20:20;11.11;47.65
72762;SHT30;60886;55.034;73.150;2023-04-10T07:23:22;11.20;48.51
72762;SHT30;60886;55.034;73.150;2023-04-10T07:26:26;11.29;47.81
72762;SHT30;60886;55.034;73.150;2023-04-10T07:29:29;11.36;47.36
72762;SHT30;60886;55.034;73.150;2023-04-10T07:32:31;11.39;47.97
72762;SHT30;60886;55.034;73.150;2023-04-10T07:35:34;11.52;47.64
72762;SHT30;60886;55.034;73.150;2023-04-10T07:38:46;11.72;46.49
72762;SHT30;60886;55.034;73.150;2023-04-10T07:41:48;11.89;46.14
72762;SHT30;60886;55.034;73.150;2023-04-10T07:44:49;11.87;45.97
72762;SHT30;60886;55.034;73.150;2023-04-10T07:47:51;11.90;44.20
72762;SHT30;60886;55.034;73.150;2023-04-10T07:50:52;11.74;44.21
72762;SHT30;60886;55.034;73.150;2023-04-10T07:53:54;11.93;44.99
72762;SHT30;60886;55.034;73.150;2023-04-10T07:56:56;12.00;44.04
72762;SHT30;60886;55.034;73.150;2023-04-10T08:00:07;12.08;44.63
72762;SHT30;60886;55.034;73.150;2023-04-10T08:03:24;11.97;43.15
72762;SHT30;60886;55.034;73.150;2023-04-10T08:06:26;11.87;44.14
72762;SHT30;60886;55.034;73.150;2023-04-10T08:09:27;11.95;43.94
72762;SHT30;60886;55.034;73.150;2023-04-10T08:12:32;11.83;44.20
72762;SHT30;60886;55.034;73.150;2023-04-10T08:15:34;11.93;42.57
72762;SHT30;60886;55.034;73.150;2023-04-10T08:18:35;11.89;42.28
72762;SHT30;60886;55.034;73.150;2023-04-10T08:21:37;11.95;42.46
72762;SHT30;60886;55.034;73.150;2023-04-10T08:24:38;12.01;41.80
72762;SHT30;60886;55.034;73.150;2023-04-10T08:27:40;11.98;42.68
72762;SHT30;60886;55.034;73.150;2023-04-10T08:30:41;11.95;43.66
72762;SHT30;60886;55.034;73.150;2023-04-10T08:33:42;12.17;43.67
72762;SHT30;60886;55.034;73.150;2023-04-10T08:36:44;12.34;43.62
72762;SHT30;60886;55.034;73.150;2023-04-10T08:39:46;12.38;41.89
72762;SHT30;60886;55.034;73.150;2023-04-10T08:42:48;12.49;42.09
72762;SHT30;60886;55.034;73.150;2023-04-10T08:45:51;12.40;41.74
72762;SHT30;60886;55.034;73.150;2023-04-10T08:52:01;12.59;42.01
72762;SHT30;60886;55.034;73.150;2023-04-10T08:55:07;12.56;42.26
72762;SHT30;60886;55.034;73.150;2023-04-10T08:58:10;12.55;42.10
72762;SHT30;60886;55.034;73.150;2023-04-10T09:01:13;12.58;42.96
72762;SHT30;60886;55.034;73.150;2023-04-10T09:04:15;12.65;42.65
72762;SHT30;60886;55.034;73.150;2023-04-10T09:07:20;12.65;44.15
72762;SHT30;60886;55.034;73.150;2023-04-10T09:10:23;12.68;44.08
72762;SHT30;60886;55.034;73.150;2023-04-10T09:13:39;12.69;43.06
72762;SHT30;60886;55.034;73.150;2023-04-10T09:16:40;12.62;41.39
72762;SHT30;60886;55.034;73.150;2023-04-10T09:19:43;12.52;43.37
72762;SHT30;60886;55.034;73.150;2023-04-10T09:22:44;12.49;43.19
72762;SHT30;60886;55.034;73.150;2023-04-10T09:25:46;12.51;42.96
72762;SHT30;60886;55.034;73.150;2023-04-10T09:29:04;12.59;44.20
72762;SHT30;60886;55.034;73.150;2023-04-10T09:32:06;12.62;44.46
72762;SHT30;60886;55.034;73.150;2023-04-10T09:35:09;12.56;44.11
72762;SHT30;60886;55.034;73.150;2023-04-10T09:38:15;12.55;44.29
72762;SHT30;60886;55.034;73.150;2023-04-10T09:41:17;12.62;45.72
72762;SHT30;60886;55.034;73.150;2023-04-10T09:44:28;12.66;44.04
72762;SHT30;60886;55.034;73.150;2023-04-10T09:47:32;12.62;44.12
72762;SHT30;60886;55.034;73.150;2023-04-10T09:50:38;12.61;45.12
72762;SHT30;60886;55.034;73.150;2023-04-10T09:53:49;12.61;44.97
72762;SHT30;60886;55.034;73.150;2023-04-10T09:56:51;12.66;44.64
72762;SHT30;60886;55.034;73.150;2023-04-10T09:59:54;12.54;43.94
72762;SHT30;60886;55.034;73.150;2023-04-10T10:02:58;12.51;43.67
72762;SHT30;60886;55.034;73.150;2023-04-10T10:06:01;12.61;43.17
72762;SHT30;60886;55.034;73.150;2023-04-10T10:09:04;12.55;43.65
72762;SHT30;60886;55.034;73.150;2023-04-10T10:12:07;12.52;44.29
72762;SHT30;60886;55.034;73.150;2023-04-10T10:15:15;12.51;44.20
72762;SHT30;60886;55.034;73.150;2023-04-10T10:21:32;12.37;44.37
72762;SHT30;60886;55.034;73.150;2023-04-10T10:24:35;12.28;47.41
72762;SHT30;60886;55.034;73.150;2023-04-10T10:27:43;12.28;44.59
72762;SHT30;60886;55.034;73.150;2023-04-10T10:30:46;12.20;42.55
72762;SHT30;60886;55.034;73.150;2023-04-10T10:33:51;12.18;44.31
72762;SHT30;60886;55.034;73.150;2023-04-10T10:37:03;12.11;46.04
72762;SHT30;60886;55.034;73.150;2023-04-10T10:40:19;12.07;42.56
72762;SHT30;60886;55.034;73.150;2023-04-10T10:46:36;12.05;45.50
72762;SHT30;60886;55.034;73.150;2023-04-10T10:49:54;12.11;39.72
72762;SHT30;60886;55.034;73.150;2023-04-10T10:52:56;12.08;39.56
72762;SHT30;60886;55.034;73.150;2023-04-10T10:55:58;12.04;39.80
72762;SHT30;60886;55.034;73.150;2023-04-10T10:59:00;11.95;39.43
72762;SHT30;60886;55.034;73.150;2023-04-10T11:02:20;11.93;40.41
72762;SHT30;60886;55.034;73.150;2023-04-10T11:08:56;11.91;42.11
72762;SHT30;60886;55.034;73.150;2023-04-10T11:11:57;11.97;41.85
72762;SHT30;60886;55.034;73.150;2023-04-10T11:15:12;11.94;42.56
72762;SHT30;60886;55.034;73.150;2023-04-10T11:18:18;11.91;38.60
72762;SHT30;60886;55.034;73.150;2023-04-10T11:21:21;11.87;39.50
72762;SHT30;60886;55.034;73.150;2023-04-10T11:24:23;11.79;39.73
72762;SHT30;60886;55.034;73.150;2023-04-10T11:27:45;11.76;40.73
72762;SHT30;60886;55.034;73.150;2023-04-10T11:31:21;11.67;39.12
72762;SHT30;60886;55.034;73.150;2023-04-10T11:34:27;11.59;40.40
72762;SHT30;60886;55.034;73.150;2023-04-10T11:37:30;11.52;41.04
72762;SHT30;60886;55.034;73.150;2023-04-10T11:41:02;11.47;42.03
72762;SHT30;60886;55.034;73.150;2023-04-10T11:44:08;11.47;39.85
72762;SHT30;60886;55.034;73.150;2023-04-10T11:47:12;11.53;40.82
72762;SHT30;60886;55.034;73.150;2023-04-10T11:50:13;11.52;40.02
72762;SHT30;60886;55.034;73.150;2023-04-10T11:53:19;11.52;40.80
72762;SHT30;60886;55.034;73.150;2023-04-10T11:56:21;11.52;39.76
72762;SHT30;60886;55.034;73.150;2023-04-10T11:59:29;11.47;39.72
72762;SHT30;60886;55.034;73.150;2023-04-10T12:02:31;11.46;39.61
72762;SHT30;60886;55.034;73.150;2023-04-10T12:05:45;11.44;39.57
72762;SHT30;60886;55.034;73.150;2023-04-10T12:08:47;11.43;41.33
72762;SHT30;60886;55.034;73.150;2023-04-10T12:11:55;11.39;42.77
72762;SHT30;60886;55.034;73.150;2023-04-10T12:15:26;11.35;40.20
72762;SHT30;60886;55.034;73.150;2023-04-10T12:18:37;11.29;40.56
72762;SHT30;60886;55.034;73.150;2023-04-10T12:21:43;11.22;41.25
72762;SHT30;60886;55.034;73.150;2023-04-10T12:24:50;11.26;41.55
72762;SHT30;60886;55.034;73.150;2023-04-10T12:27:51;11.18;41.44
72762;SHT30;60886;55.034;73.150;2023-04-10T12:30:53;11.14;41.11
72762;SHT30;60886;55.034;73.150;2023-04-10T12:33:55;11.14;41.48
72762;SHT30;60886;55.034;73.150;2023-04-10T12:37:07;11.09;42.15
72762;SHT30;60886;55.034;73.150;2023-04-10T12:40:12;11.09;41.34
72762;SHT30;60886;55.034;73.150;2023-04-10T12:43:40;11.02;42.20
72762;SHT30;60886;55.034;73.150;2023-04-10T12:46:58;10.97;42.12
72762;SHT30;60886;55.034;73.150;2023-04-10T12:50:08;10.89;41.86
72762;SHT30;60886;55.034;73.150;2023-04-10T12:53:10;10.82;42.76
72762;SHT30;60886;55.034;73.150;2023-04-10T12:56:13;10.84;42.76
72762;SHT30;60886;55.034;73.150;2023-04-10T12:59:15;10.82;42.51
72762;SHT30;60886;55.034;73.150;2023-04-10T13:02:16;10.74;42.56
72762;SHT30;60886;55.034;73.150;2023-04-10T13:05:20;10.68;43.05
72762;SHT30;60886;55.034;73.150;2023-04-10T13:08:22;10.64;43.71
72762;SHT30;60886;55.034;73.150;2023-04-10T13:11:23;10.57;44.18
72762;SHT30;60886;55.034;73.150;2023-04-10T13:14:24;10.47;44.77
72762;SHT30;60886;55.034;73.150;2023-04-10T13:17:28;10.43;44.93
72762;SHT30;60886;55.034;73.150;2023-04-10T13:20:38;10.37;45.32
72762;SHT30;60886;55.034;73.150;2023-04-10T13:23:40;10.33;45.59
72762;SHT30;60886;55.034;73.150;2023-04-10T13:26:42;10.27;45.71
72762;SHT30;60886;55.034;73.150;2023-04-10T13:29:44;10.18;45.91
72762;SHT30;60886;55.034;73.150;2023-04-10T13:32:55;10.07;46.48
72762;SHT30;60886;55.034;73.150;2023-04-10T13:35:57;9.99;46.36
72762;SHT30;60886;55.034;73.150;2023-04-10T13:38:58;9.93;46.52
72762;SHT30;60886;55.034;73.150;2023-04-10T13:41:59;9.86;46.74
72762;SHT30;60886;55.034;73.150;2023-04-10T13:45:06;9.78;46.67
72762;SHT30;60886;55.034;73.150;2023-04-10T13:48:08;9.73;46.61
72762;SHT30;60886;55.034;73.150;2023-04-10T13:51:09;9.62;47.03
72762;SHT30;60886;55.034;73.150;2023-04-10T13:54:13;9.46;47.41
72762;SHT30;60886;55.034;73.150;2023-04-10T13:57:16;9.36;47.05
72762;SHT30;60886;55.034;73.150;2023-04-10T14:00:20;9.32;47.48
72762;SHT30;60886;55.034;73.150;2023-04-10T14:03:32;9.31;47.10
72762;SHT30;60886;55.034;73.150;2023-04-10T14:06:33;9.31;46.94
72762;SHT30;60886;55.034;73.150;2023-04-10T14:09:34;9.31;47.39
72762;SHT30;60886;55.034;73.150;2023-04-10T14:12:36;9.27;48.68
72762;SHT30;60886;55.034;73.150;2023-04-10T14:15:37;8.68;50.24
72762;SHT30;60886;55.034;73.150;2023-04-10T14:18:39;7.98;53.52
72762;SHT30;60886;55.034;73.150;2023-04-10T14:21:40;7.46;55.14
72762;SHT30;60886;55.034;73.150;2023-04-10T14:24:47;7.03;56.96
72762;SHT30;60886;55.034;73.150;2023-04-10T14:27:49;6.65;58.86
72762;SHT30;60886;55.034;73.150;2023-04-10T14:30:53;6.29;60.33
72762;SHT30;60886;55.034;73.150;2023-04-10T14:33:55;6.04;61.50
72762;SHT30;60886;55.034;73.150;2023-04-10T14:36:56;5.70;62.51
72762;SHT30;60886;55.034;73.150;2023-04-10T14:40:07;5.37;63.38
72762;SHT30;60886;55.034;73.150;2023-04-10T14:43:08;5.05;63.71
72762;SHT30;60886;55.034;73.150;2023-04-10T14:46:09;4.79;64.59
72762;SHT30;60886;55.034;73.150;2023-04-10T14:49:21;4.55;65.36
72762;SHT30;60886;55.034;73.150;2023-04-10T14:52:22;4.38;65.57
72762;SHT30;60886;55.034;73.150;2023-04-10T14:55:24;4.22;65.28
72762;SHT30;60886;55.034;73.150;2023-04-10T14:58:25;4.00;65.03
72762;SHT30;60886;55.034;73.150;2023-04-10T15:01:40;3.86;65.00
72762;SHT30;60886;55.034;73.150;2023-04-10T15:04:41;3.72;64.86
72762;SHT30;60886;55.034;73.150;2023-04-10T15:07:47;3.55;65.71
72762;SHT30;60886;55.034;73.150;2023-04-10T15:10:49;3.40;66.27
72762;SHT30;60886;55.034;73.150;2023-04-10T15:14:00;3.34;66.26
72762;SHT30;60886;55.034;73.150;2023-04-10T15:17:06;3.21;66.64
72762;SHT30;60886;55.034;73.150;2023-04-10T15:20:13;3.14;67.29
72762;SHT30;60886;55.034;73.150;2023-04-10T15:23:14;3.09;67.47
72762;SHT30;60886;55.034;73.150;2023-04-10T15:26:16;3.07;67.87
72762;SHT30;60886;55.034;73.150;2023-04-10T15:29:17;3.00;68.04
72762;SHT30;60886;55.034;73.150;2023-04-10T15:32:19;2.97;68.22
72762;SHT30;60886;55.034;73.150;2023-04-10T15:35:20;2.95;68.21
72762;SHT30;60886;55.034;73.150;2023-04-10T15:38:22;2.95;68.25
72762;SHT30;60886;55.034;73.150;2023-04-10T15:41:26;2.97;68.29
72762;SHT30;60886;55.034;73.150;2023-04-10T15:44:28;3.00;68.16
72762;SHT30;60886;55.034;73.150;2023-04-10T15:47:29;2.95;68.43
72762;SHT30;60886;55.034;73.150;2023-04-10T15:50:31;2.94;67.43
72762;SHT30;60886;55.034;73.150;2023-04-10T15:53:33;2.88;66.48
72762;SHT30;60886;55.034;73.150;2023-04-10T15:56:35;2.84;66.49
72762;SHT30;60886;55.034;73.150;2023-04-10T15:59:36;2.80;66.52
72762;SHT30;60886;55.034;73.150;2023-04-10T16:02:38;2.76;66.52
72762;SHT30;60886;55.034;73.150;2023-04-10T16:05:39;2.77;66.34
72762;SHT30;60886;55.034;73.150;2023-04-10T16:08:41;2.71;65.23
72762;SHT30;60886;55.034;73.150;2023-04-10T16:11:42;2.64;65.18
72762;SHT30;60886;55.034;73.150;2023-04-10T16:14:56;2.57;65.90
72762;SHT30;60886;55.034;73.150;2023-04-10T16:18:03;2.47;66.11
72762;SHT30;60886;55.034;73.150;2023-04-10T16:21:11;2.36;66.60
72762;SHT30;60886;55.034;73.150;2023-04-10T16:24:14;2.29;67.43
72762;SHT30;60886;55.034;73.150;2023-04-10T16:27:15;2.19;67.20
72762;SHT30;60886;55.034;73.150;2023-04-10T16:30:16;2.13;67.60
72762;SHT30;60886;55.034;73.150;2023-04-10T16:33:18;2.03;67.64
72762;SHT30;60886;55.034;73.150;2023-04-10T16:36:19;2.01;68.20
72762;SHT30;60886;55.034;73.150;2023-04-10T16:39:26;1.96;68.30
72762;SHT30;60886;55.034;73.150;2023-04-10T16:42:27;1.94;68.58
72762;SHT30;60886;55.034;73.150;2023-04-10T16:45:39;1.91;69.12
72762;SHT30;60886;55.034;73.150;2023-04-10T16:48:40;1.94;69.45
72762;SHT30;60886;55.034;73.150;2023-04-10T16:51:52;1.96;69.84
72762;SHT30;60886;55.034;73.150;2023-04-10T16:54:53;1.91;69.46
72762;SHT30;60886;55.034;73.150;2023-04-10T16:57:54;1.86;69.84
72762;SHT30;60886;55.034;73.150;2023-04-10T17:00:56;1.81;70.09
72762;SHT30;60886;55.034;73.150;2023-04-10T17:04:03;1.75;70.07
72762;SHT30;60886;55.034;73.150;2023-04-10T17:07:14;1.69;70.42
72762;SHT30;60886;55.034;73.150;2023-04-10T17:10:18;1.66;70.33
72762;SHT30;60886;55.034;73.150;2023-04-10T17:13:19;1.61;70.56
72762;SHT30;60886;55.034;73.150;2023-04-10T17:16:21;1.59;70.71
72762;SHT30;60886;55.034;73.150;2023-04-10T17:19:22;1.58;70.93
72762;SHT30;60886;55.034;73.150;2023-04-10T17:22:24;1.58;71.16
72762;SHT30;60886;55.034;73.150;2023-04-10T17:25:39;1.61;71.17
72762;SHT30;60886;55.034;73.150;2023-04-10T17:28:42;1.62;71.47
72762;SHT30;60886;55.034;73.150;2023-04-10T17:31:46;1.68;71.61
72762;SHT30;60886;55.034;73.150;2023-04-10T17:34:52;1.71;71.94
72762;SHT30;60886;55.034;73.150;2023-04-10T17:37:54;1.64;72.67
72762;SHT30;60886;55.034;73.150;2023-04-10T17:40:55;1.51;74.19
72762;SHT30;60886;55.034;73.150;2023-04-10T17:43:57;1.47;74.72
72762;SHT30;60886;55.034;73.150;2023-04-10T17:46:58;1.37;75.50
72762;SHT30;60886;55.034;73.150;2023-04-10T17:50:07;1.40;76.40
72762;SHT30;60886;55.034;73.150;2023-04-10T17:53:18;1.35;76.96
72762;SHT30;60886;55.034;73.150;2023-04-10T17:56:20;1.37;76.67
72762;SHT30;60886;55.034;73.150;2023-04-10T17:59:31;1.38;76.75
72762;SHT30;60886;55.034;73.150;2023-04-10T18:02:33;1.26;77.68
72762;SHT30;60886;55.034;73.150;2023-04-10T18:05:35;0.83;75.99
72762;SHT30;60886;55.034;73.150;2023-04-10T18:08:38;0.58;75.30
72762;SHT30;60886;55.034;73.150;2023-04-10T18:11:39;0.45;74.89
72762;SHT30;60886;55.034;73.150;2023-04-10T18:14:40;0.41;74.69
72762;SHT30;60886;55.034;73.150;2023-04-10T18:17:47;0.41;74.25
72762;SHT30;60886;55.034;73.150;2023-04-10T18:20:49;0.44;73.52
72762;SHT30;60886;55.034;73.150;2023-04-10T18:23:50;0.42;73.36
72762;SHT30;60886;55.034;73.150;2023-04-10T18:26:51;0.39;73.32
72762;SHT30;60886;55.034;73.150;2023-04-10T18:29:55;0.38;73.49
72762;SHT30;60886;55.034;73.150;2023-04-10T18:32:57;0.30;73.68
72762;SHT30;60886;55.034;73.150;2023-04-10T18:35:58;0.28;73.91
72762;SHT30;60886;55.034;73.150;2023-04-10T18:39:00;0.24;73.64
72762;SHT30;60886;55.034;73.150;2023-04-10T18:42:01;0.19;72.29
72762;SHT30;60886;55.034;73.150;2023-04-10T18:45:13;0.18;72.17
72762;SHT30;60886;55.034;73.150;2023-04-10T18:48:18;0.11;71.92
72762;SHT30;60886;55.034;73.150;2023-04-10T18:51:19;0.09;72.04
72762;SHT30;60886;55.034;73.150;2023-04-10T18:54:22;0.04;71.60
72762;SHT30;60886;55.034;73.150;2023-04-10T18:57:24;-0.03;71.27
72762;SHT30;60886;55.034;73.150;2023-04-10T19:00:30;-0.07;70.64
72762;SHT30;60886;55.034;73.150;2023-04-10T19:03:46;-0.16;70.41
72762;SHT30;60886;55.034;73.150;2023-04-10T19:06:48;-0.19;70.38
72762;SHT30;60886;55.034;73.150;2023-04-10T19:09:49;-0.26;69.62
72762;SHT30;60886;55.034;73.150;2023-04-10T19:12:50;-0.29;68.63
72762;SHT30;60886;55.034;73.150;2023-04-10T19:15:54;-0.32;67.88
72762;SHT30;60886;55.034;73.150;2023-04-10T19:18:55;-0.36;67.55
72762;SHT30;60886;55.034;73.150;2023-04-10T19:21:57;-0.37;67.51
72762;SHT30;60886;55.034;73.150;2023-04-10T19:25:06;-0.38;66.47
72762;SHT30;60886;55.034;73.150;2023-04-10T19:28:13;-0.43;66.66
72762;SHT30;60886;55.034;73.150;2023-04-10T19:31:14;-0.46;65.74
72762;SHT30;60886;55.034;73.150;2023-04-10T19:34:15;-0.46;65.55
72762;SHT30;60886;55.034;73.150;2023-04-10T19:37:18;-0.50;64.86
72762;SHT30;60886;55.034;73.150;2023-04-10T19:40:20;-0.53;64.49
72762;SHT30;60886;55.034;73.150;2023-04-10T19:43:22;-0.53;63.88
72762;SHT30;60886;55.034;73.150;2023-04-10T19:46:23;-0.56;63.81
72762;SHT30;60886;55.034;73.150;2023-04-10T19:49:25;-0.64;63.87
72762;SHT30;60886;55.034;73.150;2023-04-10T19:52:26;-0.68;63.48
72762;SHT30;60886;55.034;73.150;2023-04-10T19:55:27;-0.70;63.36